Hernando Beach, Florida
Current Conditions -  °F | °C
As of 1:53 AM on Thursday 23 Oct 2014 (Local Time) from KBKV Reporting Station
Clear Clear  
Wind Chill: 63°   Ceiling: Unl
Heat Index: 63°   Visibility: 10mi
Dew Point: 56°   Wind: 8mph
Humidity: 78%   Direction: 50°NE
Pressure: 30.01"   Gusts: NA
Location:  28.4982°N, 82.633°W
Report Text: KBKV 230553Z AUTO 05007KT 10SM CLR 17/13 A3001 RMK AO2 SLP159 T01720133 10211 20172 58003
Loading
Personal Weather Stations






























Interactive Weather Map
Tropical Storm Tracking
New forecast layout! Learn more

10-Day Weather Forecast

Advertisements
Track Severe Weather on mobile